Time;durP1;ratioP1;P1;durP2;ratioP2;P2;SDS_P1;SDS_P2;PMS_P1;PMS_P2;Temp;Humidity;BMP_temperature;BMP_pressure;BME280_temperature;BME280_humidity;BME280_pressure;Samples;Min_cycle;Max_cycle;Signal;HPM_P1;HPM_P2
2021/12/08 00:02:11;;;;;;;6.38;3.35;;;;;;;3.40;97.16;99210.81;5041350;28;20048;-91
2021/12/08 00:04:37;;;;;;;8.38;3.15;;;;;;;3.39;97.40;99202.09;5039991;28;20047;-90
2021/12/08 00:07:04;;;;;;;8.93;3.38;;;;;;;3.41;97.40;99208.16;5037667;28;20445;-91
2021/12/08 00:14:54;;;;;;;8.07;2.97;;;;;;;3.50;98.02;99195.78;5041094;28;20029;-91
2021/12/08 00:17:20;;;;;;;5.22;2.90;;;;;;;3.52;97.67;99180.94;5027864;28;20442;-91
2021/12/08 00:19:45;;;;;;;6.20;2.70;;;;;;;3.50;98.14;99182.72;5038352;28;20029;-91
2021/12/08 00:22:11;;;;;;;5.90;2.47;;;;;;;3.52;98.53;99192.25;5031727;28;20043;-91
2021/12/08 00:24:37;;;;;;;8.68;2.40;;;;;;;3.65;98.43;99195.47;5048892;28;20127;-91
2021/12/08 00:27:03;;;;;;;5.65;2.65;;;;;;;3.62;99.00;99187.69;5049126;28;20143;-91
2021/12/08 00:29:28;;;;;;;9.02;3.25;;;;;;;3.64;99.46;99194.63;4990914;28;20025;-90
2021/12/08 00:31:54;;;;;;;9.18;2.83;;;;;;;3.67;99.28;99193.69;5030430;28;20156;-90
2021/12/08 00:34:19;;;;;;;6.57;2.55;;;;;;;3.74;99.07;99203.16;5023483;28;20133;-90
2021/12/08 00:36:49;;;;;;;5.78;2.80;;;;;;;3.78;99.22;99207.41;4996245;28;20032;-91
2021/12/08 00:39:15;;;;;;;4.82;2.17;;;;;;;3.84;98.98;99209.06;4993636;28;20088;-91
2021/12/08 00:41:41;;;;;;;8.88;3.03;;;;;;;3.85;99.39;99192.44;5037205;28;20026;-91
2021/12/08 00:44:08;;;;;;;7.20;2.60;;;;;;;3.91;100.00;99194.06;5027553;28;20034;-91
2021/12/08 00:46:36;;;;;;;5.97;2.83;;;;;;;3.94;99.80;99178.31;5021700;28;20516;-91
2021/12/08 00:49:07;;;;;;;10.40;2.67;;;;;;;3.88;99.78;99172.31;5037034;28;20044;-92
2021/12/08 00:51:33;;;;;;;4.10;2.13;;;;;;;3.97;99.77;99179.09;5040165;28;20179;-92
2021/12/08 00:53:59;;;;;;;9.13;2.50;;;;;;;4.10;100.00;99195.41;5037570;28;20119;-92
2021/12/08 00:56:26;;;;;;;5.97;2.40;;;;;;;4.15;99.81;99200.53;5031376;28;20079;-90
2021/12/08 00:58:52;;;;;;;4.85;2.38;;;;;;;4.22;100.00;99199.53;5027990;28;20022;-91
2021/12/08 01:01:18;;;;;;;3.97;2.40;;;;;;;4.27;100.00;99200.28;5039971;28;20388;-91
2021/12/08 01:03:45;;;;;;;4.75;2.17;;;;;;;4.30;100.00;99224.66;5021600;28;20045;-92
2021/12/08 01:06:13;;;;;;;6.53;2.25;;;;;;;4.43;99.69;99222.63;5018958;28;20079;-91
2021/12/08 01:08:39;;;;;;;4.57;2.10;;;;;;;4.44;100.00;99207.75;5039455;28;20085;-92
2021/12/08 01:11:09;;;;;;;3.90;2.20;;;;;;;4.43;100.00;99216.53;5036862;28;20057;-91
2021/12/08 01:13:35;;;;;;;4.70;2.50;;;;;;;4.50;100.00;99229.47;5038078;28;20060;-92
2021/12/08 01:16:01;;;;;;;5.53;2.35;;;;;;;4.51;99.61;99220.69;5030997;28;20071;-91
2021/12/08 01:18:30;;;;;;;6.10;2.45;;;;;;;4.56;99.81;99206.63;5024683;28;20053;-91
2021/12/08 01:20:57;;;;;;;5.20;2.33;;;;;;;4.58;99.61;99231.91;5043198;28;20021;-91
2021/12/08 01:23:24;;;;;;;3.20;1.63;;;;;;;4.81;98.61;99228.72;5057105;28;20033;-90
2021/12/08 01:25:50;;;;;;;7.65;2.00;;;;;;;4.71;98.92;99220.22;5014644;28;20029;-91
2021/12/08 01:28:22;;;;;;;4.18;2.10;;;;;;;4.78;98.87;99218.31;5027077;28;20037;-91
2021/12/08 01:30:49;;;;;;;8.90;2.10;;;;;;;4.83;98.52;99224.31;5033037;28;20037;-91
2021/12/08 01:33:16;;;;;;;4.20;2.10;;;;;;;4.87;98.46;99244.34;5043372;28;20550;-90
2021/12/08 01:35:42;;;;;;;4.90;2.40;;;;;;;4.90;98.95;99235.53;5043210;28;20035;-91
2021/12/08 01:38:10;;;;;;;3.67;2.25;;;;;;;4.88;98.94;99232.94;5041223;28;20056;-91
2021/12/08 01:40:35;;;;;;;4.63;1.92;;;;;;;4.93;98.67;99233.66;5041562;28;20043;-92
2021/12/08 01:43:03;;;;;;;7.22;2.67;;;;;;;4.89;98.87;99218.91;5042671;28;20056;-90
2021/12/08 01:48:18;;;;;;;6.95;1.85;;;;;;;4.92;98.73;99237.22;5027045;28;20046;-90
2021/12/08 01:50:47;;;;;;;3.95;1.80;;;;;;;4.92;99.04;99239.84;5040136;28;20519;-91
2021/12/08 01:53:13;;;;;;;4.47;1.85;;;;;;;4.93;98.80;99240.69;5041757;28;20060;-90
2021/12/08 01:55:40;;;;;;;7.78;1.90;;;;;;;5.00;99.21;99257.16;5032562;28;20060;-90
2021/12/08 01:58:12;;;;;;;4.15;2.03;;;;;;;5.04;98.51;99251.75;5042277;28;20033;-91
2021/12/08 02:00:47;;;;;;;7.43;2.00;;;;;;;5.06;98.52;99257.84;5012091;28;20052;-90
2021/12/08 02:03:15;;;;;;;5.43;1.90;;;;;;;5.08;98.70;99256.03;5041813;28;20059;-91
2021/12/08 02:05:40;;;;;;;6.78;2.47;;;;;;;5.00;98.60;99255.38;5033236;28;20108;-91
2021/12/08 02:08:06;;;;;;;4.88;2.17;;;;;;;5.09;98.18;99255.13;5042097;28;20567;-91
2021/12/08 02:10:32;;;;;;;7.30;2.78;;;;;;;5.13;98.29;99271.69;5024787;28;20491;-90
2021/12/08 02:12:58;;;;;;;7.80;2.67;;;;;;;5.06;98.36;99251.72;5057261;28;20168;-90
2021/12/08 02:15:23;;;;;;;9.93;2.47;;;;;;;5.07;98.64;99258.69;4998295;28;20071;-91
2021/12/08 02:17:53;;;;;;;5.45;2.50;;;;;;;5.09;98.23;99263.00;5026243;28;20042;-91
2021/12/08 02:20:21;;;;;;;7.38;2.67;;;;;;;5.09;98.25;99262.16;5039720;28;20021;-83
2021/12/08 02:22:47;;;;;;;6.72;2.13;;;;;;;5.10;97.95;99274.38;5023595;28;20037;-84
2021/12/08 02:25:19;;;;;;;8.40;2.30;;;;;;;5.10;98.23;99277.88;5042458;28;20454;-85
2021/12/08 02:27:45;;;;;;;8.70;2.08;;;;;;;5.15;97.48;99283.84;5041858;28;20441;-85
2021/12/08 02:30:21;;;;;;;10.77;2.65;;;;;;;5.13;97.33;99290.03;5039952;28;20474;-84
2021/12/08 02:49:07;;;;;;;10.20;2.47;;;;;;;5.26;94.33;99304.56;5049166;28;20350;-85
2021/12/08 02:51:36;;;;;;;4.32;1.95;;;;;;;5.18;94.97;99298.66;5030070;28;20163;-85
2021/12/08 02:54:04;;;;;;;8.23;2.40;;;;;;;5.18;94.97;99312.63;5041975;28;20080;-85
2021/12/08 02:56:30;;;;;;;7.90;1.83;;;;;;;5.15;95.10;99298.75;5029061;28;20036;-85
2021/12/08 02:58:57;;;;;;;8.88;2.67;;;;;;;5.19;94.81;99303.00;5022880;28;20393;-85
2021/12/08 03:01:24;;;;;;;7.47;2.20;;;;;;;5.26;94.40;99303.72;5038736;28;20028;-85
2021/12/08 03:03:51;;;;;;;6.45;2.08;;;;;;;5.23;94.64;99307.28;5041881;28;20393;-86
2021/12/08 03:06:17;;;;;;;6.30;2.30;;;;;;;5.23;94.54;99311.69;5029660;28;20017;-85
2021/12/08 03:08:44;;;;;;;10.25;2.70;;;;;;;5.25;94.69;99307.25;5038641;28;20452;-85
2021/12/08 03:11:10;;;;;;;9.43;2.50;;;;;;;5.24;94.69;99308.13;5042646;28;20523;-85
2021/12/08 03:13:41;;;;;;;10.52;2.08;;;;;;;5.23;94.51;99304.66;5043483;28;20132;-85
2021/12/08 03:16:08;;;;;;;8.65;2.25;;;;;;;5.20;94.50;99301.25;5038565;28;20079;-85
2021/12/08 03:18:36;;;;;;;6.80;2.47;;;;;;;5.20;94.46;99302.13;5039681;28;20334;-85
2021/12/08 03:21:05;;;;;;;7.68;2.20;;;;;;;5.18;94.26;99317.03;5028921;28;20083;-85
2021/12/08 03:23:45;;;;;;;10.10;2.33;;;;;;;5.13;94.50;99319.75;5056583;28;20104;-85
2021/12/08 03:26:14;;;;;;;9.40;2.33;;;;;;;5.14;94.07;99318.88;5041092;28;20454;-85
2021/12/08 03:28:55;;;;;;;6.97;2.20;;;;;;;5.18;94.65;99332.78;5041344;28;20095;-84
2021/12/08 03:31:28;;;;;;;10.37;2.37;;;;;;;5.18;94.05;99340.66;5025992;28;20369;-85
2021/12/08 03:33:54;;;;;;;5.57;2.00;;;;;;;5.20;93.62;99335.38;5029517;28;20033;-85
2021/12/08 03:36:19;;;;;;;8.10;1.58;;;;;;;5.21;93.87;99334.47;5032456;28;20094;-86
2021/12/08 03:38:45;;;;;;;10.88;1.92;;;;;;;5.25;92.90;99328.25;5024147;28;20037;-84
2021/12/08 03:41:11;;;;;;;6.03;1.98;;;;;;;5.17;92.63;99325.81;5027373;28;20109;-85
2021/12/08 03:43:37;;;;;;;4.75;1.70;;;;;;;5.18;92.19;99331.00;5040932;28;20025;-85
2021/12/08 03:46:04;;;;;;;4.80;1.98;;;;;;;5.20;91.17;99338.00;5051709;28;20116;-85
2021/12/08 03:48:43;;;;;;;6.95;2.30;;;;;;;5.18;91.38;99338.03;5029059;28;20033;-85
2021/12/08 03:51:09;;;;;;;6.03;2.05;;;;;;;5.12;91.34;99320.69;5012366;28;20418;-84
2021/12/08 03:53:34;;;;;;;12.15;2.50;;;;;;;5.17;90.43;99329.31;5012083;28;20079;-85
2021/12/08 03:56:00;;;;;;;9.07;1.80;;;;;;;5.13;90.35;99337.28;5029389;28;20087;-85
2021/12/08 03:58:26;;;;;;;6.93;2.10;;;;;;;5.08;90.68;99340.00;5029224;28;20136;-85
2021/12/08 04:00:53;;;;;;;6.65;1.63;;;;;;;5.03;90.62;99341.88;5023608;28;20105;-86
2021/12/08 04:03:20;;;;;;;9.15;1.92;;;;;;;5.03;89.76;99341.03;5029379;28;20041;-85
2021/12/08 04:05:53;;;;;;;9.95;2.10;;;;;;;5.06;88.46;99343.56;5029343;28;20131;-84
2021/12/08 04:08:30;;;;;;;8.40;2.10;;;;;;;4.97;88.65;99339.41;5029861;28;20045;-85
2021/12/08 04:10:59;;;;;;;10.07;2.42;;;;;;;4.89;88.02;99346.56;5028855;28;20099;-85
2021/12/08 04:13:45;;;;;;;9.75;3.30;;;;;;;4.84;87.76;99349.28;5013223;28;20033;-85
2021/12/08 04:16:14;;;;;;;7.07;1.90;;;;;;;4.79;87.17;99342.44;5030404;28;20465;-86
2021/12/08 04:18:39;;;;;;;6.38;2.20;;;;;;;4.80;87.64;99347.66;5012737;28;20021;-85
2021/12/08 04:21:07;;;;;;;10.50;2.20;;;;;;;4.77;86.81;99357.34;5028878;28;20068;-85
2021/12/08 04:23:36;;;;;;;11.82;2.60;;;;;;;4.66;87.69;99342.69;5029089;28;20311;-85
2021/12/08 04:26:06;;;;;;;6.95;2.17;;;;;;;4.68;87.73;99361.03;5029436;28;20045;-85
2021/12/08 04:28:32;;;;;;;8.93;1.75;;;;;;;4.60;87.63;99353.34;5028986;28;20036;-85
2021/12/08 04:31:25;;;;;;;8.32;1.88;;;;;;;4.56;88.18;99364.78;5028692;28;20409;-85
2021/12/08 04:33:56;;;;;;;4.93;1.85;;;;;;;4.50;88.98;99370.13;5040572;28;20393;-85
2021/12/08 04:36:25;;;;;;;8.55;2.28;;;;;;;4.50;88.84;99364.88;5045273;28;20396;-85
2021/12/08 04:38:55;;;;;;;7.15;2.05;;;;;;;4.45;88.34;99369.38;5029229;28;20438;-85
2021/12/08 04:41:31;;;;;;;10.18;2.13;;;;;;;4.44;88.89;99365.88;5013182;28;20076;-85
2021/12/08 04:44:07;;;;;;;6.15;2.50;;;;;;;4.31;88.84;99349.56;5029304;28;20103;-85
2021/12/08 05:08:59;;;;;;;6.10;1.92;;;;;;;4.16;88.06;99385.69;5054003;28;20029;-84
2021/12/08 05:11:29;;;;;;;4.60;1.67;;;;;;;4.31;86.94;99394.09;5035496;28;20495;-85
2021/12/08 05:14:01;;;;;;;10.80;2.22;;;;;;;4.23;86.72;99400.41;5052677;28;20525;-85
2021/12/08 05:16:29;;;;;;;5.40;1.67;;;;;;;4.22;87.00;99401.28;5052273;28;20048;-85
2021/12/08 05:18:58;;;;;;;9.38;2.10;;;;;;;4.25;87.13;99409.06;5052512;28;20372;-85
2021/12/08 05:21:41;;;;;;;13.95;2.53;;;;;;;4.17;87.26;99400.50;5051926;28;20082;-85
2021/12/08 05:24:14;;;;;;;7.63;1.88;;;;;;;4.13;87.28;99402.34;5052381;28;20104;-85
2021/12/08 05:26:58;;;;;;;6.93;2.00;;;;;;;4.04;87.36;99397.25;5052111;28;20044;-85
2021/12/08 05:29:30;;;;;;;10.98;2.55;;;;;;;4.05;87.54;99399.81;5052097;28;20396;-85
2021/12/08 05:31:58;;;;;;;10.85;2.25;;;;;;;4.07;87.53;99392.81;5053015;28;20087;-85
2021/12/08 05:34:24;;;;;;;8.60;2.38;;;;;;;4.07;87.26;99398.03;5053491;28;20091;-85
2021/12/08 05:36:50;;;;;;;8.63;1.92;;;;;;;4.03;87.66;99398.13;5035426;28;20045;-85
2021/12/08 05:39:20;;;;;;;10.05;2.30;;;;;;;3.97;87.51;99399.09;5052018;28;20043;-85
2021/12/08 05:41:48;;;;;;;13.25;2.05;;;;;;;3.96;87.79;99400.00;5051858;28;20491;-85
2021/12/08 05:44:15;;;;;;;9.65;2.25;;;;;;;4.00;86.98;99409.53;5052238;28;20481;-86
2021/12/08 05:46:44;;;;;;;10.27;2.50;;;;;;;4.00;87.11;99412.16;5052968;28;20033;-85
2021/12/08 05:49:14;;;;;;;11.93;2.15;;;;;;;3.96;87.51;99415.72;5052197;28;20116;-85
2021/12/08 05:51:41;;;;;;;9.07;2.33;;;;;;;3.95;87.26;99415.75;5051619;28;20473;-85
2021/12/08 05:54:13;;;;;;;11.25;3.28;;;;;;;3.91;87.52;99416.69;5035646;28;20075;-85
2021/12/08 05:56:41;;;;;;;14.85;2.97;;;;;;;3.85;87.90;99417.66;5035025;28;20044;-84
2021/12/08 05:59:10;;;;;;;10.25;2.75;;;;;;;3.87;87.27;99427.22;5052392;28;20016;-85
2021/12/08 06:01:42;;;;;;;9.73;2.47;;;;;;;3.96;87.61;99425.34;5032765;28;20078;-84
2021/12/08 06:04:09;;;;;;;11.27;2.90;;;;;;;3.92;87.31;99424.53;5030620;28;20056;-85
2021/12/08 06:06:35;;;;;;;10.18;2.33;;;;;;;3.86;87.76;99427.25;5015119;28;20465;-85
2021/12/08 06:09:05;;;;;;;16.83;2.33;;;;;;;3.85;87.32;99433.38;5032999;28;20037;-85
2021/12/08 06:11:31;;;;;;;8.07;2.28;;;;;;;3.85;87.38;99447.31;5015108;28;20113;-85
2021/12/08 06:14:00;;;;;;;6.88;2.08;;;;;;;3.91;87.32;99442.88;5031666;28;20492;-85
2021/12/08 06:16:31;;;;;;;10.55;2.40;;;;;;;3.82;87.24;99434.28;5032469;28;20038;-85
2021/12/08 06:18:57;;;;;;;6.97;2.00;;;;;;;3.86;87.11;99438.59;5031382;28;20500;-84
2021/12/08 06:21:25;;;;;;;11.05;2.10;;;;;;;3.85;87.45;99455.19;5014467;28;20483;-85
2021/12/08 06:23:52;;;;;;;7.93;2.10;;;;;;;3.83;87.42;99458.72;5014850;28;20410;-85
2021/12/08 06:26:21;;;;;;;16.27;2.90;;;;;;;3.89;87.33;99461.25;5014221;28;20042;-85
2021/12/08 06:28:47;;;;;;;13.85;2.75;;;;;;;3.84;87.16;99466.56;5014767;28;20037;-85
2021/12/08 06:31:15;;;;;;;12.00;2.70;;;;;;;3.91;87.13;99476.91;5030509;28;20130;-85
2021/12/08 06:33:43;;;;;;;15.02;3.78;;;;;;;3.83;87.17;99470.06;5025118;28;20424;-85
2021/12/08 06:36:19;;;;;;;10.82;2.80;;;;;;;3.76;87.18;99468.44;5031927;28;20037;-85
2021/12/08 06:38:46;;;;;;;14.80;2.97;;;;;;;3.83;87.30;99480.56;5030695;28;20442;-85
2021/12/08 06:41:24;;;;;;;10.00;2.88;;;;;;;3.79;87.02;99481.47;5030512;28;20028;-85
2021/12/08 06:43:56;;;;;;;11.52;2.22;;;;;;;3.82;87.34;99483.19;5031015;28;20033;-85
2021/12/08 06:46:24;;;;;;;6.88;1.90;;;;;;;3.75;86.98;99485.03;5030984;28;20059;-85
2021/12/08 06:48:53;;;;;;;9.88;2.47;;;;;;;3.71;86.77;99478.13;5030778;28;20084;-85
2021/12/08 06:51:22;;;;;;;13.05;2.28;;;;;;;3.79;86.36;99488.47;5030288;28;20418;-84
2021/12/08 06:53:52;;;;;;;13.27;2.20;;;;;;;3.75;86.50;99479.78;5030498;28;20026;-85
2021/12/08 06:56:23;;;;;;;13.90;2.65;;;;;;;3.70;86.45;99479.00;5030328;28;20052;-84
2021/12/08 06:58:56;;;;;;;14.77;2.63;;;;;;;3.65;86.68;99481.69;5030466;28;20061;-85
2021/12/08 07:01:59;;;;;;;16.20;2.20;;;;;;;3.61;86.79;99480.03;5047964;28;20094;-85
2021/12/08 07:04:33;;;;;;;10.93;2.60;;;;;;;3.55;87.45;99480.09;5050004;28;20064;-85
2021/12/08 07:07:01;;;;;;;9.77;2.13;;;;;;;3.60;87.26;99480.03;5050821;28;20043;-84
2021/12/08 07:09:33;;;;;;;13.18;2.70;;;;;;;3.56;86.87;99480.97;5050923;28;20154;-85
2021/12/08 07:12:04;;;;;;;6.97;2.17;;;;;;;3.52;86.95;99490.63;5051194;28;20039;-84
2021/12/08 07:14:31;;;;;;;9.80;2.38;;;;;;;3.51;87.17;99501.09;5052096;28;20040;-85
2021/12/08 07:17:03;;;;;;;15.80;3.00;;;;;;;3.53;86.88;99508.03;5034054;28;20028;-85
2021/12/08 07:19:46;;;;;;;6.85;2.08;;;;;;;3.48;86.75;99515.09;5050713;28;20039;-85
2021/12/08 07:22:19;;;;;;;12.15;2.42;;;;;;;3.51;86.83;99525.56;5050822;28;20079;-84
2021/12/08 07:24:47;;;;;;;11.32;2.38;;;;;;;3.52;86.41;99527.28;5034118;28;20033;-85
2021/12/08 07:27:18;;;;;;;10.18;2.17;;;;;;;3.48;86.40;99530.81;5050787;28;20044;-85
2021/12/08 07:29:47;;;;;;;9.07;3.17;;;;;;;3.45;86.81;99536.94;5050724;28;20086;-85
2021/12/08 07:32:27;;;;;;;8.50;2.38;;;;;;;3.52;86.68;99542.97;5050150;28;20046;-85
2021/12/08 07:34:54;;;;;;;11.43;2.65;;;;;;;3.42;86.56;99536.13;5050388;28;20060;-85
2021/12/08 07:37:24;;;;;;;12.35;2.55;;;;;;;3.39;87.34;99551.88;5017275;28;20575;-85
2021/12/08 07:40:02;;;;;;;10.70;2.43;;;;;;;3.47;86.59;99565.72;5050566;28;20027;-86
2021/12/08 07:42:38;;;;;;;9.30;2.55;;;;;;;3.31;86.82;99558.94;5050318;28;20033;-85
2021/12/08 07:45:09;;;;;;;7.53;1.98;;;;;;;3.31;86.78;99569.41;5051671;28;20121;-85
2021/12/08 07:47:37;;;;;;;11.07;2.75;;;;;;;3.33;87.11;99568.50;5050518;28;20390;-85
2021/12/08 07:50:12;;;;;;;11.60;2.30;;;;;;;3.28;87.04;99566.84;5051327;28;20151;-85
2021/12/08 07:52:42;;;;;;;10.80;2.17;;;;;;;3.28;87.58;99565.09;5050019;28;20180;-85
2021/12/08 07:55:14;;;;;;;8.15;2.22;;;;;;;3.23;87.23;99561.66;5050250;28;20021;-85
2021/12/08 07:57:40;;;;;;;14.40;2.28;;;;;;;3.29;86.67;99560.72;5050206;28;20029;-85
2021/12/08 08:00:16;;;;;;;13.23;2.70;;;;;;;3.33;87.33;99567.66;5033140;28;20029;-85
2021/12/08 08:02:43;;;;;;;11.02;2.30;;;;;;;3.24;86.96;99560.81;5049908;28;20365;-86
2021/12/08 08:05:09;;;;;;;10.40;1.85;;;;;;;3.35;86.45;99560.66;5033209;28;20441;-85
2021/12/08 08:07:35;;;;;;;11.07;1.80;;;;;;;3.29;87.15;99561.63;5033236;28;20052;-85
2021/12/08 08:10:03;;;;;;;7.38;2.00;;;;;;;3.34;86.45;99556.28;5033384;28;20334;-84
2021/12/08 08:12:33;;;;;;;16.90;2.60;;;;;;;3.32;87.02;99552.84;5049745;28;20377;-85
2021/12/08 08:15:04;;;;;;;9.80;2.38;;;;;;;3.40;86.76;99570.16;5049924;28;20107;-86
2021/12/08 08:17:37;;;;;;;9.32;2.25;;;;;;;3.37;86.78;99564.97;5049858;28;20044;-85
2021/12/08 08:20:14;;;;;;;7.00;2.05;;;;;;;3.46;86.44;99571.84;5049781;28;20090;-85
2021/12/08 08:22:43;;;;;;;10.55;2.50;;;;;;;3.43;86.88;99577.13;5049622;28;20037;-85
2021/12/08 08:25:12;;;;;;;7.88;2.25;;;;;;;3.44;86.11;99560.53;5049545;28;20142;-85
2021/12/08 08:27:38;;;;;;;8.13;1.85;;;;;;;3.40;86.71;99551.00;5032782;28;20350;-85
2021/12/08 08:30:08;;;;;;;13.65;2.38;;;;;;;3.58;85.49;99562.94;5049448;28;20184;-84
2021/12/08 08:32:37;;;;;;;12.27;2.15;;;;;;;3.50;85.97;99572.69;5049242;28;20044;-84
2021/12/08 08:35:18;;;;;;;8.57;1.67;;;;;;;3.42;86.23;99560.56;5033521;28;20493;-85
2021/12/08 08:37:45;;;;;;;10.77;2.35;;;;;;;3.41;85.63;99558.84;5049574;28;20112;-85
2021/12/08 08:40:22;;;;;;;12.82;2.88;;;;;;;3.48;85.76;99550.88;5032891;28;20124;-85
2021/12/08 08:42:51;;;;;;;8.93;2.65;;;;;;;3.42;85.53;99546.59;5049381;28;20041;-86
2021/12/08 08:45:33;;;;;;;6.05;1.75;;;;;;;3.52;85.04;99553.44;5033325;28;20032;-84
2021/12/08 08:48:05;;;;;;;16.05;2.25;;;;;;;3.58;84.85;99561.19;5049615;28;20065;-85
2021/12/08 08:50:46;;;;;;;6.90;1.92;;;;;;;3.56;84.49;99544.66;5049238;28;20039;-85
2021/12/08 08:53:12;;;;;;;;;;;;;;;3.63;85.48;99548.03;5051156;28;20354;-85
2021/12/08 08:55:58;;;;;;;9.75;1.90;;;;;;;3.70;83.47;99538.38;5032595;28;19999;-86
2021/12/08 08:58:27;;;;;;;6.78;2.53;;;;;;;3.69;84.00;99547.97;5032949;28;20033;-86
2021/12/08 09:01:04;;;;;;;7.43;2.17;;;;;;;3.73;83.58;99547.03;5050949;28;20044;-86
2021/12/08 09:03:34;;;;;;;8.23;2.88;;;;;;;3.78;83.30;99563.53;5049410;28;20033;-85
2021/12/08 09:06:14;;;;;;;7.97;2.22;;;;;;;3.73;84.32;99559.25;5049555;28;20364;-85
2021/12/08 09:08:40;;;;;;;4.45;1.60;;;;;;;3.79;83.55;99575.75;5049534;28;20104;-86
2021/12/08 09:11:15;;;;;;;11.68;4.00;;;;;;;3.72;84.05;99566.25;5032660;28;20029;-85
2021/12/08 09:13:53;;;;;;;6.18;1.88;;;;;;;3.80;84.21;99572.22;5049634;28;20068;-85
2021/12/08 09:16:30;;;;;;;7.55;1.88;;;;;;;3.83;83.73;99569.59;5049557;28;20029;-85
2021/12/08 09:19:09;;;;;;;15.25;2.38;;;;;;;3.88;83.93;99572.13;5049543;28;20124;-84
2021/12/08 09:21:58;;;;;;;8.40;2.33;;;;;;;3.92;84.35;99576.44;5049204;28;20159;-85
2021/12/08 09:24:38;;;;;;;9.00;2.40;;;;;;;3.96;82.75;99577.25;5049466;28;20040;-85
2021/12/08 09:27:08;;;;;;;10.20;2.72;;;;;;;4.00;83.16;99584.16;5049584;28;20337;-85
2021/12/08 09:29:46;;;;;;;8.18;2.47;;;;;;;4.01;83.39;99580.69;5032950;28;20033;-85
2021/12/08 09:32:20;;;;;;;5.80;2.13;;;;;;;4.12;83.44;99593.59;5049063;28;20052;-85
2021/12/08 09:34:56;;;;;;;8.00;2.10;;;;;;;4.15;83.04;99602.25;5049365;28;20041;-85
2021/12/08 09:37:39;;;;;;;6.45;2.20;;;;;;;4.23;81.85;99603.03;5049396;28;20115;-86
2021/12/08 09:40:15;;;;;;;10.60;2.03;;;;;;;4.26;82.66;99617.84;5052657;28;20037;-86
2021/12/08 09:42:47;;;;;;;8.20;2.28;;;;;;;4.29;81.98;99599.44;5053961;28;20029;-86
2021/12/08 09:45:22;;;;;;;10.82;2.58;;;;;;;4.32;82.45;99607.25;5052802;28;20036;-86
2021/12/08 09:47:47;;;;;;;5.70;1.50;;;;;;;4.38;81.34;99601.91;5052492;28;20032;-85
2021/12/08 09:50:15;;;;;;;12.30;2.38;;;;;;;4.44;80.84;99600.94;5019271;28;20039;-86
2021/12/08 09:52:43;;;;;;;12.38;2.38;;;;;;;4.55;81.38;99606.00;5053919;28;20082;-86
2021/12/08 09:55:13;;;;;;;6.72;1.70;;;;;;;4.58;80.20;99592.84;5052709;28;20051;-87
2021/12/08 09:57:39;;;;;;;7.00;1.85;;;;;;;4.61;80.45;99593.66;5036011;28;20079;-86
2021/12/08 10:00:07;;;;;;;4.95;1.70;;;;;;;4.64;80.13;99592.72;5035615;28;20040;-86
2021/12/08 10:02:35;;;;;;;13.48;2.60;;;;;;;4.70;79.27;99567.28;5052348;28;20071;-87
2021/12/08 10:05:06;;;;;;;6.57;1.88;;;;;;;4.73;80.83;99576.84;5052547;28;20025;-86
2021/12/08 10:07:32;;;;;;;5.50;1.85;;;;;;;4.74;79.77;99571.56;5052227;28;20481;-87
2021/12/08 10:09:57;;;;;;;4.78;1.80;;;;;;;4.71;80.08;99555.03;5035724;28;20045;-87
2021/12/08 10:12:23;;;;;;;8.77;2.03;;;;;;;4.80;79.69;99569.69;5019199;28;20051;-86
2021/12/08 10:14:50;;;;;;;3.22;1.50;;;;;;;4.86;79.89;99569.59;5035617;28;20486;-87
2021/12/08 10:17:17;;;;;;;41.50;2.63;;;;;;;4.88;77.91;99554.72;5052304;28;20445;-86
2021/12/08 10:19:43;;;;;;;9.70;2.25;;;;;;;4.91;78.33;99559.88;5052135;28;20021;-87
2021/12/08 10:22:18;;;;;;;5.15;1.60;;;;;;;5.03;77.19;99574.53;5051870;28;20115;-87
2021/12/08 10:25:02;;;;;;;7.20;2.17;;;;;;;4.94;77.09;99559.81;5052539;28;20113;-87
2021/12/08 10:27:27;;;;;;;9.05;1.75;;;;;;;4.98;78.41;99571.13;5052058;28;20033;-87
2021/12/08 10:29:53;;;;;;;9.70;2.28;;;;;;;5.00;78.28;99557.09;5035386;28;20481;-87
2021/12/08 10:32:19;;;;;;;11.13;2.40;;;;;;;5.06;77.19;99556.97;5051519;28;20512;-86
2021/12/08 10:34:53;;;;;;;6.65;2.03;;;;;;;4.96;77.80;99544.91;5051813;28;20045;-87
2021/12/08 10:37:20;;;;;;;12.70;1.95;;;;;;;4.99;77.92;99536.13;5035406;28;20032;-87
2021/12/08 10:39:49;;;;;;;7.07;1.83;;;;;;;5.07;78.13;99549.94;5051765;28;20024;-87
2021/12/08 10:42:28;;;;;;;7.90;2.05;;;;;;;5.07;77.49;99542.06;5053339;28;20029;-87
2021/12/08 10:45:12;;;;;;;8.20;1.80;;;;;;;5.13;77.38;99537.56;5051579;28;20032;-88
2021/12/08 10:47:49;;;;;;;7.03;2.13;;;;;;;5.13;77.52;99532.31;5051993;28;20481;-87
2021/12/08 10:56:04;;;;;;;6.30;2.45;;;;;;;5.11;76.46;99530.63;5051671;28;20068;-87
2021/12/08 10:58:34;;;;;;;6.60;1.83;;;;;;;5.11;77.61;99555.09;5051563;28;20112;-88
2021/12/08 11:01:19;;;;;;;8.85;2.45;;;;;;;5.11;77.29;99551.63;5051610;28;20056;-87
2021/12/08 11:03:46;;;;;;;6.18;1.70;;;;;;;5.10;77.82;99555.16;5035004;28;20037;-88
2021/12/08 11:06:15;;;;;;;5.95;1.85;;;;;;;5.21;77.26;99570.66;5051606;28;20021;-86
2021/12/08 11:08:46;;;;;;;10.15;2.35;;;;;;;5.28;76.74;99580.16;5035242;28;20171;-86
2021/12/08 11:11:32;;;;;;;;;;;;;;;5.30;78.04;99570.50;5051401;28;20037;-86
2021/12/08 11:14:05;;;;;;;6.88;1.90;;;;;;;5.29;76.89;99572.25;5034200;28;19917;-88
2021/12/08 11:16:41;;;;;;;9.88;2.30;;;;;;;5.37;77.35;99595.72;5052342;28;20036;-88
2021/12/08 11:19:22;;;;;;;8.82;1.83;;;;;;;5.37;77.05;99588.69;5051049;28;20035;-89
2021/12/08 11:21:55;;;;;;;4.75;1.80;;;;;;;5.44;77.14;99599.06;5050637;28;20028;-89
2021/12/08 11:24:34;;;;;;;4.20;1.88;;;;;;;5.41;77.62;99586.00;5034328;28;20033;-89
2021/12/08 11:27:03;;;;;;;6.93;1.58;;;;;;;5.47;76.60;99607.75;5051037;28;20143;-89
2021/12/08 11:29:33;;;;;;;7.07;2.08;;;;;;;5.41;77.38;99607.88;5050993;28;20040;-89
2021/12/08 11:32:02;;;;;;;10.77;2.30;;;;;;;5.49;77.62;99610.34;5050092;28;20386;-89
2021/12/08 11:34:51;;;;;;;8.77;2.25;;;;;;;5.37;78.12;99601.84;5031389;28;20485;-89
2021/12/08 11:37:20;;;;;;;10.05;2.03;;;;;;;5.45;76.73;99621.81;5014313;28;20041;-86
2021/12/08 11:39:51;;;;;;;8.35;2.10;;;;;;;5.44;77.56;99620.97;5031266;28;20021;-86
2021/12/08 11:42:21;;;;;;;;;;;;;;;5.47;78.91;99620.88;5032707;28;20030;-86
2021/12/08 11:44:49;;;;;;;6.65;2.10;;;;;;;5.45;78.11;99619.19;5030997;28;20325;-83
2021/12/08 11:47:25;;;;;;;6.25;1.95;;;;;;;5.39;76.81;99621.06;5014198;28;20528;-86
2021/12/08 11:49:57;;;;;;;8.60;2.30;;;;;;;5.45;76.57;99648.06;5032155;28;20488;-86
2021/12/08 11:52:29;;;;;;;8.70;2.03;;;;;;;5.48;76.56;99640.13;5032392;28;20028;-86
2021/12/08 11:55:09;;;;;;;4.68;1.60;;;;;;;5.48;75.50;99640.13;5033799;28;20029;-85
2021/12/08 11:57:37;;;;;;;6.25;2.05;;;;;;;5.42;76.59;99643.75;5050594;28;20069;-87
2021/12/08 12:00:20;;;;;;;5.57;1.83;;;;;;;5.44;78.08;99638.44;5034178;28;20123;-86
2021/12/08 12:02:58;;;;;;;9.07;2.20;;;;;;;5.54;78.36;99653.16;5050352;28;20088;-86
2021/12/08 12:05:27;;;;;;;6.25;2.25;;;;;;;5.59;78.09;99659.16;5050101;28;20040;-86
2021/12/08 12:07:54;;;;;;;7.22;2.05;;;;;;;5.56;77.35;99652.22;5020401;28;20029;-86
2021/12/08 12:10:25;;;;;;;9.70;2.17;;;;;;;5.64;76.82;99665.19;5013923;28;20410;-85
2021/12/08 12:12:51;;;;;;;5.18;1.80;;;;;;;5.64;76.67;99670.44;5014100;28;20033;-86
2021/12/08 12:15:19;;;;;;;8.10;1.83;;;;;;;5.63;75.89;99673.09;5014228;28;20021;-86
2021/12/08 12:17:47;;;;;;;10.27;1.90;;;;;;;5.59;76.23;99664.41;5014011;28;20497;-86
2021/12/08 12:20:21;;;;;;;5.22;1.70;;;;;;;5.53;75.74;99667.16;5030498;28;20100;-86
2021/12/08 12:22:53;;;;;;;7.72;2.42;;;;;;;5.58;75.98;99683.69;5030073;28;20399;-86
2021/12/08 12:25:29;;;;;;;8.13;1.77;;;;;;;5.56;76.69;99690.72;5030450;28;20029;-86
2021/12/08 12:28:22;;;;;;;10.02;2.10;;;;;;;5.53;76.69;99689.03;5030532;28;20033;-87
2021/12/08 12:31:08;;;;;;;6.70;2.03;;;;;;;5.52;76.14;99679.44;5030348;28;20045;-86
2021/12/08 12:33:44;;;;;;;7.40;2.38;;;;;;;5.56;75.83;99698.59;5023243;28;20038;-86
2021/12/08 12:36:28;;;;;;;9.52;1.80;;;;;;;5.52;76.14;99705.69;5014114;28;20041;-86
2021/12/08 12:39:09;;;;;;;7.82;2.33;;;;;;;5.50;76.01;99704.00;5030190;28;20101;-86
2021/12/08 12:41:35;;;;;;;5.90;1.67;;;;;;;5.55;76.17;99705.63;5029941;28;20132;-86
2021/12/08 12:44:21;;;;;;;6.20;1.85;;;;;;;5.55;77.00;99700.38;5013765;28;20063;-86
2021/12/08 12:47:05;;;;;;;6.88;2.03;;;;;;;5.55;77.87;99708.25;5030545;28;20076;-86
2021/12/08 12:49:32;;;;;;;4.65;2.10;;;;;;;5.55;77.06;99700.38;5030378;28;20567;-89